Time;durP1;ratioP1;P1;durP2;ratioP2;P2;SDS_P1;SDS_P2;PMS_P1;PMS_P2;Temp;Humidity;BMP_temperature;BMP_pressure;BME280_temperature;BME280_humidity;BME280_pressure;Samples;Min_cycle;Max_cycle;Signal;HPM_P1;HPM_P2
2022/12/17 13:08:06;;;;;;;20.58;11.95;;;;;;;16.26;100.00;100534.22;4932049;29;20127;-84
2022/12/17 13:10:52;;;;;;;23.50;13.13;;;;;;;16.10;100.00;100534.84;4931973;29;20048;-83
2022/12/17 13:13:18;;;;;;;21.10;12.30;;;;;;;16.05;100.00;100534.78;4931403;29;20087;-83
2022/12/17 13:15:48;;;;;;;22.35;13.38;;;;;;;15.94;100.00;100537.22;4931761;29;20095;-84
2022/12/17 13:18:28;;;;;;;20.75;12.82;;;;;;;15.89;100.00;100544.06;4931690;29;20043;-84
2022/12/17 13:21:03;;;;;;;18.10;12.02;;;;;;;15.74;100.00;100552.47;4915964;29;20047;-84
2022/12/17 13:23:36;;;;;;;29.58;12.77;;;;;;;15.62;100.00;100553.13;4931812;29;20084;-84
2022/12/17 13:26:43;;;;;;;19.70;12.50;;;;;;;15.68;100.00;100563.63;4899758;29;20433;-84
2022/12/17 13:29:11;;;;;;;20.65;13.02;;;;;;;15.62;100.00;100549.66;4874987;29;20048;-84
2022/12/17 13:31:55;;;;;;;25.75;14.10;;;;;;;15.37;100.00;100520.59;4875123;29;20128;-83
2022/12/17 13:35:04;;;;;;;24.25;14.60;;;;;;;15.53;100.00;100571.19;4874943;29;20067;-84
2022/12/17 13:37:49;;;;;;;24.67;15.93;;;;;;;15.29;100.00;100569.00;4838123;29;20038;-83
2022/12/17 13:40:20;;;;;;;32.22;18.58;;;;;;;14.96;100.00;100586.53;4837847;29;20046;-84
2022/12/17 13:42:46;;;;;;;30.83;21.40;;;;;;;14.11;100.00;100555.19;4843213;29;20040;-85
2022/12/17 13:45:16;;;;;;;36.38;22.65;;;;;;;13.52;100.00;100575.34;4858766;29;20447;-84
2022/12/17 13:47:42;;;;;;;34.50;22.25;;;;;;;13.11;100.00;100609.63;4856115;29;20113;-84
2022/12/17 13:50:36;;;;;;;43.20;25.98;;;;;;;12.32;100.00;100613.28;4856258;29;20038;-84
2022/12/17 13:53:10;;;;;;;56.03;33.53;;;;;;;12.05;100.00;100586.56;4819791;29;20043;-84
2022/12/17 13:55:37;;;;;;;51.35;27.13;;;;;;;11.72;100.00;100619.88;4819687;29;20030;-84
2022/12/17 13:58:02;;;;;;;67.97;33.55;;;;;;;11.23;100.00;100613.88;4819664;29;20493;-84
2022/12/17 14:00:30;;;;;;;46.92;26.73;;;;;;;11.16;100.00;100634.31;4819701;29;20038;-83
2022/12/17 14:02:56;;;;;;;78.32;41.13;;;;;;;11.05;100.00;100634.72;4819677;29;20057;-83
2022/12/17 14:05:30;;;;;;;65.35;36.40;;;;;;;11.14;100.00;100630.78;4822705;29;20051;-83
2022/12/17 14:08:01;;;;;;;64.97;33.40;;;;;;;10.75;100.00;100617.22;4837668;29;20048;-83
2022/12/17 14:10:50;;;;;;;57.03;30.83;;;;;;;10.40;100.00;100607.28;4837451;29;20050;-83
2022/12/17 14:13:16;;;;;;;60.67;32.13;;;;;;;10.30;100.00;100610.28;4897869;29;20099;-85
2022/12/17 14:15:51;;;;;;;78.05;43.88;;;;;;;10.61;100.00;100637.34;4930883;29;20044;-83
2022/12/17 14:18:19;;;;;;;67.00;36.58;;;;;;;10.39;100.00;100599.47;4930949;29;20126;-83
2022/12/17 14:20:46;;;;;;;67.57;34.00;;;;;;;10.41;100.00;100611.63;4930828;29;20035;-84
2022/12/17 14:23:22;;;;;;;64.88;36.40;;;;;;;10.60;100.00;100636.47;4928741;29;20055;-86
2022/12/17 14:25:49;;;;;;;68.18;35.28;;;;;;;10.57;100.00;100631.19;4930133;29;20122;-84
2022/12/17 14:28:28;;;;;;;69.45;35.10;;;;;;;10.58;100.00;100632.94;4931805;28;20596;-86
2022/12/17 14:31:07;;;;;;;72.28;35.63;;;;;;;10.75;100.00;100643.91;4988659;28;20065;-85
2022/12/17 14:33:34;;;;;;;63.28;34.45;;;;;;;10.64;100.00;100611.63;4988567;28;20039;-85
2022/12/17 14:36:05;;;;;;;63.33;35.35;;;;;;;10.99;100.00;100638.84;4988567;28;20114;-85
2022/12/17 14:38:31;;;;;;;69.28;36.72;;;;;;;11.15;100.00;100632.53;4988849;28;20042;-85
2022/12/17 14:44:19;;;;;;;111.22;90.57;;;;;;;11.31;100.00;100638.25;4950107;28;20107;-85
2022/12/17 14:46:44;;;;;;;69.78;41.83;;;;;;;11.30;100.00;100637.41;4949711;28;20031;-85
2022/12/17 14:49:20;;;;;;;61.05;34.95;;;;;;;11.39;100.00;100654.03;4949691;28;20042;-85
2022/12/17 14:51:47;;;;;;;63.13;34.63;;;;;;;11.48;100.00;100665.59;4949739;28;20059;-85
2022/12/17 14:54:13;;;;;;;61.08;33.70;;;;;;;11.43;100.00;100671.44;4933520;28;20063;-86
2022/12/17 14:56:40;;;;;;;58.50;31.92;;;;;;;11.52;100.00;100686.41;4949767;28;20039;-86
2022/12/17 14:59:35;;;;;;;59.50;33.20;;;;;;;11.31;100.00;100657.25;4949826;28;20485;-85
2022/12/17 15:02:18;;;;;;;58.38;32.53;;;;;;;11.47;100.00;100660.38;4930368;29;20045;-84
2022/12/17 15:04:44;;;;;;;59.03;32.05;;;;;;;11.61;100.00;100658.28;4930528;29;20608;-85
2022/12/17 15:07:14;;;;;;;55.95;32.30;;;;;;;11.54;100.00;100628.75;4930428;29;20131;-85
2022/12/17 15:09:40;;;;;;;;;;;;;;;11.60;100.00;100662.59;4930906;29;20038;-82
2022/12/17 15:12:06;;;;;;;57.00;31.58;;;;;;;11.44;100.00;100668.91;4930380;29;20034;-86
2022/12/17 15:14:31;;;;;;;59.75;33.13;;;;;;;11.54;100.00;100677.88;4930300;29;20050;-85
2022/12/17 15:16:58;;;;;;;61.17;33.63;;;;;;;11.55;100.00;100691.69;4930677;29;20695;-85
2022/12/17 15:19:23;;;;;;;64.05;32.95;;;;;;;11.32;100.00;100677.09;4930421;29;20065;-83
2022/12/17 15:21:49;;;;;;;57.95;31.88;;;;;;;11.26;100.00;100692.34;4949597;28;20118;-84
2022/12/17 15:24:18;;;;;;;72.95;37.55;;;;;;;11.17;100.00;100704.94;4949454;28;20047;-83
2022/12/17 15:26:45;;;;;;;68.93;39.90;;;;;;;11.20;100.00;100727.44;4949438;28;20059;-83
2022/12/17 15:29:10;;;;;;;66.60;34.88;;;;;;;10.79;100.00;100710.38;4949123;28;20536;-84
2022/12/17 15:31:36;;;;;;;74.10;39.78;;;;;;;10.47;100.00;100709.09;4949610;28;20043;-84
2022/12/17 15:34:01;;;;;;;72.30;37.15;;;;;;;10.26;100.00;100684.09;4949828;28;20486;-82
2022/12/17 15:36:27;;;;;;;78.78;41.50;;;;;;;10.35;100.00;100694.81;4949957;28;20031;-84
2022/12/17 15:38:52;;;;;;;71.53;40.00;;;;;;;10.54;100.00;100734.31;4963049;28;20042;-84
2022/12/17 15:44:02;;;;;;;78.53;37.20;;;;;;;10.25;100.00;100712.44;4974747;28;20072;-85
2022/12/17 15:46:28;;;;;;;79.68;34.67;;;;;;;10.23;100.00;100708.91;4974322;28;20540;-85
2022/12/17 15:48:55;;;;;;;70.00;34.20;;;;;;;10.08;100.00;100707.44;4974416;28;20055;-85
2022/12/17 15:51:22;;;;;;;73.07;34.78;;;;;;;10.09;100.00;100679.94;4974727;28;20175;-85
2022/12/17 15:53:49;;;;;;;78.57;39.00;;;;;;;10.25;100.00;100699.53;4974849;28;20117;-86
2022/12/17 15:56:28;;;;;;;72.70;35.22;;;;;;;10.44;100.00;100714.09;4988933;28;20038;-86
2022/12/17 15:58:57;;;;;;;76.53;35.65;;;;;;;10.19;100.00;100713.03;4989256;28;20027;-84
2022/12/17 16:01:23;;;;;;;81.40;38.45;;;;;;;10.38;100.00;100729.34;4974467;28;20039;-86
2022/12/17 16:03:52;;;;;;;85.43;40.03;;;;;;;10.46;100.00;100731.41;4974078;28;20018;-85
2022/12/17 16:06:17;;;;;;;92.45;38.13;;;;;;;10.23;100.00;100709.78;4973971;28;20031;-84
2022/12/17 16:08:42;;;;;;;78.63;34.08;;;;;;;10.22;100.00;100733.81;4973821;28;20034;-84
2022/12/17 16:11:10;;;;;;;76.40;35.67;;;;;;;10.23;100.00;100747.59;4974188;28;20030;-84
2022/12/17 16:13:37;;;;;;;86.90;36.40;;;;;;;10.13;100.00;100712.78;4973961;28;20498;-84
2022/12/17 16:16:03;;;;;;;100.78;44.80;;;;;;;10.24;100.00;100728.72;4973960;28;20043;-84
2022/12/17 16:18:29;;;;;;;102.35;45.33;;;;;;;9.99;100.00;100741.47;4988884;28;20026;-84
2022/12/17 16:21:03;;;;;;;86.18;43.30;;;;;;;9.97;100.00;100776.63;4973616;28;20122;-83
2022/12/17 16:23:29;;;;;;;90.40;36.85;;;;;;;9.82;100.00;100745.88;4973877;28;20030;-83
2022/12/17 16:25:58;;;;;;;78.03;39.67;;;;;;;9.88;100.00;100771.94;4973727;28;20103;-84
2022/12/17 16:28:33;;;;;;;80.53;38.80;;;;;;;9.55;100.00;100724.88;4973878;28;20042;-84
2022/12/17 16:31:03;;;;;;;87.00;41.42;;;;;;;9.74;100.00;100775.56;4973613;28;20038;-84
2022/12/17 16:33:36;;;;;;;;;;;;;;;9.63;100.00;100788.00;4989109;28;20039;-83
2022/12/17 16:36:02;;;;;;;92.15;40.35;;;;;;;9.46;100.00;100781.16;4973479;28;20426;-84
2022/12/17 16:38:28;;;;;;;92.30;43.05;;;;;;;9.62;100.00;100798.22;4973714;28;20039;-84
2022/12/17 16:40:55;;;;;;;91.55;42.03;;;;;;;9.65;100.00;100790.63;4973502;28;20523;-85
2022/12/17 16:43:21;;;;;;;79.45;41.15;;;;;;;9.64;100.00;100841.28;4973375;28;20512;-84
2022/12/17 16:45:49;;;;;;;85.97;41.60;;;;;;;9.56;100.00;100847.81;4988513;28;20042;-84
2022/12/17 16:48:16;;;;;;;83.50;39.53;;;;;;;9.47;100.00;100811.28;4970839;28;20050;-84
2022/12/17 16:50:42;;;;;;;83.20;41.70;;;;;;;9.55;100.00;100830.56;4973116;28;20396;-84
2022/12/17 16:53:08;;;;;;;67.43;35.90;;;;;;;9.53;100.00;100835.66;4973254;28;20096;-86
2022/12/17 16:55:40;;;;;;;69.72;37.00;;;;;;;9.60;100.00;100854.00;4973533;28;20464;-84
2022/12/17 16:58:05;;;;;;;72.13;36.08;;;;;;;9.86;100.00;100891.31;4973300;28;20061;-85
2022/12/17 17:00:33;;;;;;;73.55;40.85;;;;;;;9.88;100.00;100879.34;4988498;28;20062;-84
2022/12/17 17:03:18;;;;;;;60.13;30.98;;;;;;;9.69;100.00;100875.94;5009589;28;20045;-83
2022/12/17 17:05:43;;;;;;;48.20;28.48;;;;;;;9.48;100.00;100878.38;5009574;28;20184;-83
2022/12/17 17:08:09;;;;;;;52.72;29.35;;;;;;;9.36;100.00;100886.38;5009523;28;20621;-83
2022/12/17 17:10:35;;;;;;;48.83;28.40;;;;;;;9.34;100.00;100879.41;5009438;28;20056;-83
2022/12/17 17:13:21;;;;;;;42.42;24.67;;;;;;;9.18;100.00;100857.16;5009342;28;20569;-83
2022/12/17 17:15:46;;;;;;;50.47;26.13;;;;;;;9.14;100.00;100857.81;4970424;28;20039;-84
2022/12/17 17:18:12;;;;;;;46.50;28.13;;;;;;;9.36;100.00;100852.88;4970192;28;20041;-84
2022/12/17 17:20:37;;;;;;;52.92;30.52;;;;;;;9.33;100.00;100769.41;4954001;28;20043;-83
2022/12/17 17:23:02;;;;;;;56.55;29.88;;;;;;;9.37;100.00;100702.63;4970253;28;20489;-77
2022/12/17 17:25:28;;;;;;;55.78;29.05;;;;;;;9.71;100.00;100758.28;4970197;28;20062;-76
2022/12/17 17:27:53;;;;;;;45.85;25.55;;;;;;;9.83;100.00;100773.44;4953870;28;20135;-76
2022/12/17 17:30:19;;;;;;;55.08;29.95;;;;;;;9.80;100.00;100801.63;4969973;28;20501;-77
2022/12/17 17:32:45;;;;;;;44.92;23.98;;;;;;;9.65;100.00;100780.31;4970149;28;20034;-77
2022/12/17 17:35:10;;;;;;;52.20;28.65;;;;;;;9.70;100.00;100771.97;4953588;28;20399;-79
2022/12/17 17:37:35;;;;;;;54.05;30.98;;;;;;;9.77;100.00;100749.94;4950829;29;20504;-79
2022/12/17 17:40:03;;;;;;;52.75;28.58;;;;;;;9.63;100.00;100728.72;4950797;29;20031;-78
2022/12/17 17:42:28;;;;;;;59.50;29.65;;;;;;;9.57;100.00;100759.38;4950497;28;20094;-78
2022/12/17 17:44:54;;;;;;;54.00;32.67;;;;;;;9.49;100.00;100750.38;4950670;29;20035;-79
2022/12/17 17:47:19;;;;;;;60.38;33.33;;;;;;;9.60;100.00;100769.78;4961978;28;20154;-79
2022/12/17 17:49:45;;;;;;;59.85;31.77;;;;;;;9.67;100.00;100797.63;4967398;28;20045;-77
2022/12/17 17:52:10;;;;;;;57.83;34.65;;;;;;;9.79;100.00;100804.16;4970565;28;20030;-79
2022/12/17 17:54:36;;;;;;;55.60;30.83;;;;;;;9.59;100.00;100769.75;4969536;28;20097;-79
2022/12/17 17:57:01;;;;;;;55.50;31.90;;;;;;;9.69;100.00;100779.66;4968018;28;20030;-79
2022/12/17 17:59:27;;;;;;;52.45;30.73;;;;;;;9.82;100.00;100781.06;4967157;28;20046;-79
2022/12/17 18:01:54;;;;;;;52.95;27.98;;;;;;;9.75;100.00;100754.13;4967486;28;20031;-81
2022/12/17 18:04:23;;;;;;;49.45;29.70;;;;;;;9.84;100.00;100758.81;4954887;28;20477;-78
2022/12/17 18:06:48;;;;;;;52.65;30.63;;;;;;;9.87;100.00;100771.88;4971599;28;20488;-77
2022/12/17 18:09:14;;;;;;;50.90;30.02;;;;;;;9.99;100.00;100781.84;4971887;28;20065;-75
2022/12/17 18:11:41;;;;;;;56.72;31.10;;;;;;;9.85;100.00;100766.63;4971683;28;20692;-75
2022/12/17 18:14:07;;;;;;;55.97;31.67;;;;;;;9.86;100.00;100765.81;4952734;28;20049;-77
2022/12/17 18:16:36;;;;;;;55.40;33.67;;;;;;;9.93;100.00;100789.28;4953392;28;20425;-75
2022/12/17 18:19:14;;;;;;;51.00;31.85;;;;;;;9.83;100.00;100777.69;4952187;28;20567;-73
2022/12/17 18:21:40;;;;;;;52.78;31.17;;;;;;;9.88;100.00;100779.66;4954930;28;20114;-75
2022/12/17 18:24:17;;;;;;;57.33;32.22;;;;;;;9.95;100.00;100783.38;4951634;28;20118;-75
2022/12/17 18:26:44;;;;;;;58.88;33.63;;;;;;;9.76;100.00;100744.69;4950876;28;20047;-74
2022/12/17 18:29:20;;;;;;;57.15;34.75;;;;;;;9.75;100.00;100810.88;4951637;28;20019;-75
2022/12/17 18:31:46;;;;;;;63.80;37.42;;;;;;;9.36;100.00;100826.25;4957015;28;20039;-74
2022/12/17 18:34:13;;;;;;;65.07;35.60;;;;;;;9.30;100.00;100841.41;4954240;28;20040;-75
2022/12/17 18:36:41;;;;;;;60.67;35.85;;;;;;;9.32;100.00;100848.41;4950663;28;20027;-76
2022/12/17 18:39:13;;;;;;;66.35;36.58;;;;;;;9.35;100.00;100852.81;4950847;28;20031;-77
2022/12/17 18:44:24;;;;;;;72.38;40.35;;;;;;;9.08;100.00;100850.66;4951012;28;20047;-75
2022/12/17 18:46:51;;;;;;;147.20;93.88;;;;;;;8.91;100.00;100824.09;4957199;28;20030;-78
2022/12/17 18:49:19;;;;;;;85.47;48.13;;;;;;;9.09;100.00;100867.00;4949384;28;20094;-79
2022/12/17 18:51:46;;;;;;;97.93;57.90;;;;;;;9.12;100.00;100892.91;4950174;28;20023;-77
2022/12/17 18:54:15;;;;;;;84.85;49.10;;;;;;;9.09;100.00;100892.78;4950417;28;20065;-79
2022/12/17 18:56:41;;;;;;;80.67;43.90;;;;;;;9.11;100.00;100897.19;4950768;28;20058;-80
2022/12/17 18:59:07;;;;;;;77.13;44.35;;;;;;;9.05;100.00;100865.97;4950609;28;20066;-80
2022/12/17 19:01:35;;;;;;;71.68;41.05;;;;;;;9.31;100.00;100876.66;4950086;28;20051;-79
2022/12/17 19:04:06;;;;;;;78.25;46.25;;;;;;;9.46;100.00;100876.50;4951316;28;20110;-79
2022/12/17 19:06:33;;;;;;;76.10;47.80;;;;;;;9.49;100.00;100879.25;4950936;28;20109;-80
2022/12/17 19:09:11;;;;;;;73.38;41.28;;;;;;;9.42;100.00;100856.56;4950997;28;20031;-77
2022/12/17 19:11:36;;;;;;;66.82;42.38;;;;;;;9.51;100.00;100854.44;4953070;28;20086;-80
2022/12/17 19:14:02;;;;;;;74.15;41.67;;;;;;;9.72;100.00;100875.19;4958929;28;20393;-79
2022/12/17 19:16:28;;;;;;;64.07;38.78;;;;;;;9.73;100.00;100869.19;4959394;28;20038;-79
2022/12/17 19:19:02;;;;;;;63.08;37.70;;;;;;;9.81;100.00;100877.31;4974376;28;20035;-79
2022/12/17 19:21:29;;;;;;;63.45;39.05;;;;;;;9.88;100.00;100887.97;4974453;28;20023;-78
2022/12/17 19:24:00;;;;;;;67.93;40.63;;;;;;;10.08;100.00;100900.91;4974146;28;20118;-79
2022/12/17 19:26:26;;;;;;;87.80;50.80;;;;;;;10.08;100.00;100906.09;4973906;28;20122;-80
2022/12/17 19:28:54;;;;;;;80.88;47.92;;;;;;;10.05;100.00;100908.50;4974264;28;20485;-79
2022/12/17 19:31:21;;;;;;;75.50;46.20;;;;;;;10.06;100.00;100910.28;4973742;28;20039;-77
2022/12/17 19:33:47;;;;;;;68.90;44.40;;;;;;;10.09;100.00;100909.53;4977715;28;20027;-86
2022/12/17 19:36:20;;;;;;;64.75;40.17;;;;;;;10.02;100.00;100909.25;4977013;28;20035;-80
2022/12/17 19:38:46;;;;;;;65.65;41.58;;;;;;;10.06;100.00;100910.28;4976322;28;20031;-78
2022/12/17 19:41:16;;;;;;;66.97;39.38;;;;;;;9.98;100.00;100934.81;4973329;28;20508;-81
2022/12/17 19:44:06;;;;;;;68.63;39.33;;;;;;;9.84;100.00;100935.09;4973932;28;20031;-81
2022/12/17 19:46:34;;;;;;;61.78;38.28;;;;;;;9.74;100.00;100911.34;4990617;28;20069;-80
2022/12/17 19:49:00;;;;;;;60.72;36.63;;;;;;;9.58;100.00;100882.25;4971091;28;20050;-80
2022/12/17 19:51:27;;;;;;;59.33;36.42;;;;;;;9.84;100.00;100914.44;4971340;28;20046;-79
2022/12/17 19:53:54;;;;;;;60.45;36.72;;;;;;;9.81;100.00;100916.00;4970092;28;20440;-80
2022/12/17 19:56:28;;;;;;;70.07;39.50;;;;;;;9.85;100.00;100910.16;4974755;28;20049;-80
2022/12/17 19:59:00;;;;;;;58.50;36.38;;;;;;;9.85;100.00;100926.50;4974571;28;20038;-79
2022/12/17 20:01:35;;;;;;;69.32;37.55;;;;;;;9.35;100.00;100886.31;4969881;28;20049;-78
2022/12/17 20:04:00;;;;;;;63.67;38.17;;;;;;;9.29;100.00;100915.22;4970520;28;20042;-78
2022/12/17 20:06:29;;;;;;;65.88;39.15;;;;;;;9.34;100.00;100907.75;4970491;28;20042;-79
2022/12/17 20:08:57;;;;;;;64.63;37.80;;;;;;;9.37;100.00;100900.13;4970296;28;20031;-79
2022/12/17 20:11:33;;;;;;;58.78;36.90;;;;;;;9.12;100.00;100868.06;4970659;28;20636;-78
2022/12/17 20:14:07;;;;;;;59.60;35.65;;;;;;;9.35;100.00;100940.44;4971311;28;20063;-77
2022/12/17 20:16:36;;;;;;;57.60;34.90;;;;;;;9.29;100.00;100940.13;4968187;28;20030;-78
2022/12/17 20:19:05;;;;;;;61.13;34.70;;;;;;;9.25;100.00;100935.63;4968387;28;20040;-79
2022/12/17 20:21:31;;;;;;;62.70;37.33;;;;;;;8.99;100.00;100897.44;4954586;28;20865;-80
2022/12/17 20:23:57;;;;;;;65.68;36.72;;;;;;;9.34;100.00;100947.25;4953270;28;20035;-82
2022/12/17 20:26:23;;;;;;;61.55;34.63;;;;;;;9.25;100.00;100940.78;4958894;28;20026;-79
2022/12/17 20:28:49;;;;;;;65.90;35.80;;;;;;;9.40;100.00;100972.47;4974867;28;20042;-80
2022/12/17 20:31:16;;;;;;;59.55;35.22;;;;;;;9.20;100.00;100927.66;4972517;28;20500;-79
2022/12/17 20:34:02;;;;;;;57.30;34.05;;;;;;;9.35;100.00;100954.19;4987299;28;20404;-79
2022/12/17 20:36:29;;;;;;;54.22;34.55;;;;;;;9.48;100.00;100984.06;4969577;28;20038;-79
2022/12/17 20:38:55;;;;;;;54.70;33.95;;;;;;;9.47;100.00;100981.38;4969749;28;20046;-80
2022/12/17 20:41:26;;;;;;;63.55;34.90;;;;;;;9.42;100.00;100973.44;4969755;28;20054;-80
2022/12/17 20:43:53;;;;;;;56.75;33.75;;;;;;;9.24;100.00;100950.19;4967895;28;20122;-82
2022/12/17 20:46:19;;;;;;;59.35;35.08;;;;;;;9.45;100.00;100973.56;4953669;28;20107;-80
2022/12/17 20:48:45;;;;;;;51.08;32.83;;;;;;;9.48;100.00;100968.59;4969174;28;20548;-79
2022/12/17 20:51:14;;;;;;;60.63;34.20;;;;;;;9.54;100.00;100952.53;4969421;28;20039;-80
2022/12/17 20:53:40;;;;;;;55.28;31.45;;;;;;;9.61;100.00;100964.00;4969598;28;20074;-79
2022/12/17 20:56:09;;;;;;;50.65;31.25;;;;;;;9.35;100.00;100932.69;4969197;28;20551;-83
2022/12/17 20:58:36;;;;;;;55.95;32.72;;;;;;;9.40;100.00;100949.28;4956261;28;20564;-85
2022/12/17 21:01:07;;;;;;;51.78;30.73;;;;;;;9.44;100.00;100974.38;4954114;28;20027;-82
2022/12/17 21:03:33;;;;;;;55.38;30.92;;;;;;;9.41;100.00;100976.81;4950643;28;20138;-87
2022/12/17 21:06:12;;;;;;;52.78;32.97;;;;;;;9.36;100.00;100997.19;4939109;28;20131;-86
2022/12/17 21:08:38;;;;;;;56.37;34.30;;;;;;;9.22;100.00;100978.47;4952290;28;20042;-86
2022/12/17 21:11:05;;;;;;;58.50;37.70;;;;;;;9.28;100.00;100982.16;4951488;28;20271;-83
2022/12/17 21:13:33;;;;;;;55.25;33.22;;;;;;;9.30;100.00;100986.56;4955186;28;20082;-81
2022/12/17 21:16:06;;;;;;;54.97;33.67;;;;;;;9.29;100.00;100992.53;4967026;28;20050;-79
2022/12/17 21:18:32;;;;;;;57.90;33.33;;;;;;;9.42;100.00;101008.59;4966773;28;20047;-80
2022/12/17 21:21:04;;;;;;;50.88;33.13;;;;;;;8.73;100.00;100898.69;4966925;28;20125;-80
2022/12/17 21:23:34;;;;;;;59.50;35.13;;;;;;;9.39;100.00;101020.56;4967802;28;20039;-80
2022/12/17 21:26:04;;;;;;;55.88;34.45;;;;;;;9.37;100.00;101023.81;4967613;28;20471;-81
2022/12/17 21:28:30;;;;;;;;;;;;;;;9.36;100.00;101017.81;4968644;28;20066;-81
2022/12/17 21:30:56;;;;;;;55.88;33.10;;;;;;;9.13;100.00;100983.13;4951734;28;19957;-80
2022/12/17 21:33:21;;;;;;;58.25;33.92;;;;;;;9.05;100.00;101000.78;4968101;28;20120;-80
2022/12/17 21:35:47;;;;;;;58.65;34.97;;;;;;;9.09;100.00;101000.94;4935090;28;20094;-80
2022/12/17 21:38:13;;;;;;;57.63;34.53;;;;;;;9.08;100.00;100992.31;4968186;28;20169;-80
2022/12/17 21:40:39;;;;;;;61.28;36.40;;;;;;;9.12;100.00;101011.41;4970873;28;20054;-74
2022/12/17 21:43:04;;;;;;;59.92;37.25;;;;;;;9.17;100.00;101018.56;4961091;28;20154;-80
2022/12/17 21:45:39;;;;;;;60.10;34.17;;;;;;;9.14;100.00;101010.66;4984237;28;20034;-79
2022/12/17 21:48:06;;;;;;;63.42;34.80;;;;;;;8.82;100.00;100976.44;4970022;28;20081;-78
2022/12/17 21:50:34;;;;;;;69.82;39.15;;;;;;;8.89;100.00;100998.22;4981643;28;20049;-78
2022/12/17 21:52:59;;;;;;;56.85;35.80;;;;;;;9.00;100.00;100983.34;4966979;28;20034;-79
2022/12/17 21:55:25;;;;;;;62.25;35.53;;;;;;;9.20;100.00;101003.25;4963823;28;20041;-78
2022/12/17 21:57:51;;;;;;;70.35;37.58;;;;;;;9.29;100.00;100991.66;4962994;28;20031;-81
2022/12/17 22:00:17;;;;;;;68.47;37.03;;;;;;;9.21;100.00;100968.97;4984318;28;20074;-81
2022/12/17 22:02:42;;;;;;;63.80;37.33;;;;;;;9.33;100.00;100980.69;4953573;28;20069;-76
2022/12/17 22:05:08;;;;;;;62.33;35.55;;;;;;;9.07;100.00;100926.16;4965614;28;20067;-83
2022/12/17 22:07:34;;;;;;;52.97;33.83;;;;;;;9.39;100.00;100994.78;4951092;28;20035;-87
2022/12/17 22:10:08;;;;;;;57.67;35.72;;;;;;;9.52;100.00;100998.84;4959456;28;20485;-81
2022/12/17 22:15:21;;;;;;;59.55;36.00;;;;;;;9.19;100.00;100933.63;4953390;28;20127;-80
2022/12/17 22:17:51;;;;;;;58.17;33.90;;;;;;;9.35;100.00;100968.78;4970304;28;20034;-81
2022/12/17 22:20:16;;;;;;;59.10;33.47;;;;;;;9.04;100.00;100915.72;4970149;28;20049;-83
2022/12/17 22:22:43;;;;;;;64.00;33.80;;;;;;;8.71;100.00;100915.75;4970967;28;20035;-81
2022/12/17 22:25:10;;;;;;;59.78;32.05;;;;;;;8.69;100.00;100956.00;4970263;28;20078;-80
2022/12/17 22:27:35;;;;;;;74.78;40.95;;;;;;;8.13;100.00;100881.00;4970120;28;20035;-84
2022/12/17 22:33:01;;;;;;;79.00;43.15;;;;;;;8.19;100.00;100904.47;4970643;28;20046;-80
2022/12/17 22:35:27;;;;;;;82.20;44.65;;;;;;;8.23;100.00;100915.81;4982381;28;20424;-78
2022/12/17 22:37:53;;;;;;;81.40;44.90;;;;;;;8.20;100.00;100897.63;4970064;28;20030;-78
2022/12/17 22:40:20;;;;;;;80.20;44.35;;;;;;;8.26;100.00;100893.72;4969540;28;20432;-79
2022/12/17 22:45:30;;;;;;;77.25;42.53;;;;;;;8.92;100.00;100970.03;4970065;28;20042;-78
2022/12/17 22:47:55;;;;;;;111.15;53.33;;;;;;;8.89;100.00;100937.28;4931209;28;1214282;-79
2022/12/17 22:50:21;;;;;;;81.03;41.47;;;;;;;8.63;100.00;100906.75;4974607;28;20078;-80
2022/12/17 22:52:46;;;;;;;69.97;38.50;;;;;;;8.48;100.00;100887.13;4974176;28;20092;-80
2022/12/17 22:55:12;;;;;;;64.05;37.08;;;;;;;9.00;100.00;100961.03;4974800;28;20136;-79
2022/12/17 22:57:37;;;;;;;62.35;37.75;;;;;;;9.14;100.00;100986.63;4974429;28;20027;-79
2022/12/17 23:00:09;;;;;;;63.45;37.63;;;;;;;8.98;100.00;100964.34;4974912;28;20038;-80
2022/12/17 23:02:35;;;;;;;74.90;38.75;;;;;;;9.10;100.00;101002.69;4973126;28;20584;-80
2022/12/17 23:05:00;;;;;;;70.45;40.00;;;;;;;8.80;100.00;100957.44;4975130;28;20034;-81
2022/12/17 23:07:26;;;;;;;74.53;40.35;;;;;;;8.88;100.00;100978.41;4974281;28;20548;-81
2022/12/17 23:09:51;;;;;;;69.07;40.28;;;;;;;8.98;100.00;100990.09;4974594;28;20081;-82
2022/12/17 23:15:01;;;;;;;75.40;41.10;;;;;;;9.27;100.00;101031.91;4975598;28;20037;-81
2022/12/17 23:17:26;;;;;;;72.97;41.13;;;;;;;9.00;100.00;100973.03;4981445;28;20705;-81
2022/12/17 23:19:52;;;;;;;67.32;38.35;;;;;;;8.99;100.00;100974.69;4979645;28;20030;-80
2022/12/17 23:22:17;;;;;;;66.28;40.47;;;;;;;8.66;100.00;100897.50;4974556;28;20118;-82
2022/12/17 23:24:43;;;;;;;71.82;38.08;;;;;;;9.26;100.00;100994.06;4974194;28;20101;-82
2022/12/17 23:27:09;;;;;;;68.60;39.38;;;;;;;8.69;100.00;100909.66;4973836;28;20548;-83
2022/12/17 23:29:34;;;;;;;68.63;39.35;;;;;;;8.71;100.00;100942.38;4989194;28;20039;-78
2022/12/17 23:32:01;;;;;;;68.35;36.53;;;;;;;8.69;100.00;100969.72;4973829;28;20031;-78
2022/12/17 23:34:26;;;;;;;65.53;37.40;;;;;;;8.93;100.00;101025.03;4973652;28;20031;-78
2022/12/17 23:36:52;;;;;;;61.53;34.90;;;;;;;9.09;100.00;101099.69;4974139;28;20023;-77
2022/12/17 23:39:17;;;;;;;61.72;35.80;;;;;;;8.83;100.00;101096.59;4974488;28;20452;-77
2022/12/17 23:41:43;;;;;;;67.20;38.75;;;;;;;8.77;100.00;101093.69;4974109;28;20023;-78
2022/12/17 23:44:08;;;;;;;67.20;37.70;;;;;;;8.65;100.00;101090.44;4974032;28;20500;-78
2022/12/17 23:46:34;;;;;;;67.47;37.47;;;;;;;8.75;100.00;101103.03;4973723;28;20027;-78
2022/12/17 23:48:59;;;;;;;68.13;39.28;;;;;;;8.82;100.00;101115.47;4973371;28;20042;-80
2022/12/17 23:51:25;;;;;;;68.18;41.33;;;;;;;8.95;100.00;101142.75;4973460;28;20043;-80
2022/12/17 23:53:51;;;;;;;72.95;40.28;;;;;;;9.00;100.00;101131.00;4973697;28;20097;-79
2022/12/17 23:56:22;;;;;;;65.85;39.60;;;;;;;9.06;100.00;101138.19;4973677;28;20027;-78
2022/12/17 23:58:52;;;;;;;76.53;39.08;;;;;;;9.26;100.00;101170.16;4973344;28;20031;-78
